sensor_id;sensor_type;location;lat;lon;timestamp;temperature;humidity
3350;DHT22;1688;51.000;13.684;2022-11-25T00:01:33;7.60;99.90
3350;DHT22;1688;51.000;13.684;2022-11-25T00:04:04;7.60;99.90
3350;DHT22;1688;51.000;13.684;2022-11-25T00:06:36;7.70;99.90
3350;DHT22;1688;51.000;13.684;2022-11-25T00:09:11;7.70;99.90
3350;DHT22;1688;51.000;13.684;2022-11-25T00:11:43;7.70;99.90
3350;DHT22;1688;51.000;13.684;2022-11-25T00:14:15;7.70;99.90
3350;DHT22;1688;51.000;13.684;2022-11-25T00:16:46;7.80;99.90
3350;DHT22;1688;51.000;13.684;2022-11-25T00:19:18;7.90;99.90
3350;DHT22;1688;51.000;13.684;2022-11-25T00:21:50;7.90;99.90
3350;DHT22;1688;51.000;13.684;2022-11-25T00:24:21;8.00;99.90
3350;DHT22;1688;51.000;13.684;2022-11-25T00:26:53;7.90;99.90
3350;DHT22;1688;51.000;13.684;2022-11-25T00:29:24;7.90;99.90
3350;DHT22;1688;51.000;13.684;2022-11-25T00:31:56;7.90;99.90
3350;DHT22;1688;51.000;13.684;2022-11-25T00:34:28;7.90;99.90
3350;DHT22;1688;51.000;13.684;2022-11-25T00:36:59;7.90;99.90
3350;DHT22;1688;51.000;13.684;2022-11-25T00:39:31;7.90;99.90
3350;DHT22;1688;51.000;13.684;2022-11-25T00:42:03;7.90;99.90
3350;DHT22;1688;51.000;13.684;2022-11-25T00:44:53;7.90;99.90
3350;DHT22;1688;51.000;13.684;2022-11-25T00:47:24;7.90;99.90
3350;DHT22;1688;51.000;13.684;2022-11-25T00:49:56;7.90;99.90
3350;DHT22;1688;51.000;13.684;2022-11-25T00:52:28;7.90;99.90
3350;DHT22;1688;51.000;13.684;2022-11-25T00:54:59;7.90;99.90
3350;DHT22;1688;51.000;13.684;2022-11-25T00:57:31;8.00;99.90
3350;DHT22;1688;51.000;13.684;2022-11-25T01:00:04;7.90;99.90
3350;DHT22;1688;51.000;13.684;2022-11-25T01:02:36;8.00;99.90
3350;DHT22;1688;51.000;13.684;2022-11-25T01:05:08;8.00;99.90
3350;DHT22;1688;51.000;13.684;2022-11-25T01:07:39;8.00;99.90
3350;DHT22;1688;51.000;13.684;2022-11-25T01:10:11;8.10;99.90
3350;DHT22;1688;51.000;13.684;2022-11-25T01:12:46;8.10;99.90
3350;DHT22;1688;51.000;13.684;2022-11-25T01:15:17;8.10;99.90
3350;DHT22;1688;51.000;13.684;2022-11-25T01:17:49;8.10;99.90
3350;DHT22;1688;51.000;13.684;2022-11-25T01:20:21;8.10;99.90
3350;DHT22;1688;51.000;13.684;2022-11-25T01:22:52;8.10;99.90
3350;DHT22;1688;51.000;13.684;2022-11-25T01:25:24;8.20;99.90
3350;DHT22;1688;51.000;13.684;2022-11-25T01:27:56;8.10;99.90
3350;DHT22;1688;51.000;13.684;2022-11-25T01:30:27;8.10;99.90
3350;DHT22;1688;51.000;13.684;2022-11-25T01:32:59;8.10;99.90
3350;DHT22;1688;51.000;13.684;2022-11-25T01:35:30;8.10;99.90
3350;DHT22;1688;51.000;13.684;2022-11-25T01:38:02;8.00;99.90
3350;DHT22;1688;51.000;13.684;2022-11-25T01:40:34;8.10;99.90
3350;DHT22;1688;51.000;13.684;2022-11-25T01:43:12;8.10;99.90
3350;DHT22;1688;51.000;13.684;2022-11-25T01:45:44;8.10;99.90
3350;DHT22;1688;51.000;13.684;2022-11-25T01:48:30;8.10;99.90
3350;DHT22;1688;51.000;13.684;2022-11-25T01:51:04;8.10;99.90
3350;DHT22;1688;51.000;13.684;2022-11-25T01:53:36;8.10;99.90
3350;DHT22;1688;51.000;13.684;2022-11-25T01:56:07;8.10;99.90
3350;DHT22;1688;51.000;13.684;2022-11-25T01:58:39;8.10;99.90
3350;DHT22;1688;51.000;13.684;2022-11-25T02:01:12;8.20;99.90
3350;DHT22;1688;51.000;13.684;2022-11-25T02:03:48;8.20;99.90
3350;DHT22;1688;51.000;13.684;2022-11-25T02:06:37;8.10;99.90
3350;DHT22;1688;51.000;13.684;2022-11-25T02:09:11;8.10;99.90
3350;DHT22;1688;51.000;13.684;2022-11-25T02:11:44;8.10;99.90
3350;DHT22;1688;51.000;13.684;2022-11-25T02:14:16;8.10;99.90
3350;DHT22;1688;51.000;13.684;2022-11-25T02:16:50;8.10;99.90
3350;DHT22;1688;51.000;13.684;2022-11-25T02:19:27;8.10;99.90
3350;DHT22;1688;51.000;13.684;2022-11-25T02:22:02;8.20;99.90
3350;DHT22;1688;51.000;13.684;2022-11-25T02:24:49;8.20;99.90
3350;DHT22;1688;51.000;13.684;2022-11-25T02:27:24;8.20;99.90
3350;DHT22;1688;51.000;13.684;2022-11-25T02:29:56;8.20;99.90
3350;DHT22;1688;51.000;13.684;2022-11-25T02:32:27;8.10;99.90
3350;DHT22;1688;51.000;13.684;2022-11-25T02:34:59;8.10;99.90
3350;DHT22;1688;51.000;13.684;2022-11-25T02:37:31;8.10;99.90
3350;DHT22;1688;51.000;13.684;2022-11-25T02:40:03;8.10;99.90
3350;DHT22;1688;51.000;13.684;2022-11-25T02:42:35;8.00;99.90
3350;DHT22;1688;51.000;13.684;2022-11-25T02:45:11;8.00;99.90
3350;DHT22;1688;51.000;13.684;2022-11-25T02:47:44;8.00;99.90
3350;DHT22;1688;51.000;13.684;2022-11-25T02:50:15;7.90;99.90
3350;DHT22;1688;51.000;13.684;2022-11-25T02:52:47;8.00;99.90
3350;DHT22;1688;51.000;13.684;2022-11-25T02:55:19;7.90;99.90
3350;DHT22;1688;51.000;13.684;2022-11-25T02:57:50;7.90;99.90
3350;DHT22;1688;51.000;13.684;2022-11-25T03:00:22;7.90;99.90
3350;DHT22;1688;51.000;13.684;2022-11-25T03:02:54;8.00;99.90
3350;DHT22;1688;51.000;13.684;2022-11-25T03:05:26;8.10;99.90
3350;DHT22;1688;51.000;13.684;2022-11-25T03:07:58;8.00;99.90
3350;DHT22;1688;51.000;13.684;2022-11-25T03:10:30;8.00;99.90
3350;DHT22;1688;51.000;13.684;2022-11-25T03:13:02;8.00;99.90
3350;DHT22;1688;51.000;13.684;2022-11-25T03:15:34;7.90;99.90
3350;DHT22;1688;51.000;13.684;2022-11-25T03:18:06;7.90;99.90
3350;DHT22;1688;51.000;13.684;2022-11-25T03:20:38;7.80;99.90
3350;DHT22;1688;51.000;13.684;2022-11-25T03:23:10;7.90;99.90
3350;DHT22;1688;51.000;13.684;2022-11-25T03:25:42;7.90;99.90
3350;DHT22;1688;51.000;13.684;2022-11-25T03:28:13;7.90;99.90
3350;DHT22;1688;51.000;13.684;2022-11-25T03:30:45;7.90;99.90
3350;DHT22;1688;51.000;13.684;2022-11-25T03:33:17;7.90;99.90
3350;DHT22;1688;51.000;13.684;2022-11-25T03:35:48;7.90;99.90
3350;DHT22;1688;51.000;13.684;2022-11-25T03:38:20;7.90;99.90
3350;DHT22;1688;51.000;13.684;2022-11-25T03:40:52;7.90;99.90
3350;DHT22;1688;51.000;13.684;2022-11-25T03:43:23;7.90;99.90
3350;DHT22;1688;51.000;13.684;2022-11-25T03:45:55;7.90;99.90
3350;DHT22;1688;51.000;13.684;2022-11-25T03:48:26;7.90;99.90
3350;DHT22;1688;51.000;13.684;2022-11-25T03:50:58;7.90;99.90
3350;DHT22;1688;51.000;13.684;2022-11-25T03:53:30;7.80;99.90
3350;DHT22;1688;51.000;13.684;2022-11-25T03:56:01;7.90;99.90
3350;DHT22;1688;51.000;13.684;2022-11-25T03:58:33;7.80;99.90
3350;DHT22;1688;51.000;13.684;2022-11-25T04:01:05;7.80;99.90
3350;DHT22;1688;51.000;13.684;2022-11-25T04:03:36;7.80;99.90
3350;DHT22;1688;51.000;13.684;2022-11-25T04:06:08;7.80;99.90
3350;DHT22;1688;51.000;13.684;2022-11-25T04:08:40;7.80;99.90
3350;DHT22;1688;51.000;13.684;2022-11-25T04:11:12;7.80;99.90
3350;DHT22;1688;51.000;13.684;2022-11-25T04:13:43;7.80;99.90
3350;DHT22;1688;51.000;13.684;2022-11-25T04:16:22;7.80;99.90
3350;DHT22;1688;51.000;13.684;2022-11-25T04:18:55;7.80;99.90
3350;DHT22;1688;51.000;13.684;2022-11-25T04:21:26;7.90;99.90
3350;DHT22;1688;51.000;13.684;2022-11-25T04:23:58;7.90;99.90
3350;DHT22;1688;51.000;13.684;2022-11-25T04:26:30;7.90;99.90
3350;DHT22;1688;51.000;13.684;2022-11-25T04:29:02;7.80;99.90
3350;DHT22;1688;51.000;13.684;2022-11-25T04:31:33;7.80;99.90
3350;DHT22;1688;51.000;13.684;2022-11-25T04:34:05;7.70;99.90
3350;DHT22;1688;51.000;13.684;2022-11-25T04:36:37;7.60;99.90
3350;DHT22;1688;51.000;13.684;2022-11-25T04:39:08;7.60;99.90
3350;DHT22;1688;51.000;13.684;2022-11-25T04:41:40;7.50;99.90
3350;DHT22;1688;51.000;13.684;2022-11-25T04:44:12;7.50;99.90
3350;DHT22;1688;51.000;13.684;2022-11-25T04:46:43;7.50;99.90
3350;DHT22;1688;51.000;13.684;2022-11-25T04:49:15;7.50;99.90
3350;DHT22;1688;51.000;13.684;2022-11-25T04:51:46;7.50;99.90
3350;DHT22;1688;51.000;13.684;2022-11-25T04:54:18;7.50;99.90
3350;DHT22;1688;51.000;13.684;2022-11-25T04:56:50;7.50;99.90
3350;DHT22;1688;51.000;13.684;2022-11-25T04:59:21;7.50;99.90
3350;DHT22;1688;51.000;13.684;2022-11-25T05:02:13;7.50;99.90
3350;DHT22;1688;51.000;13.684;2022-11-25T05:04:49;7.50;99.90
3350;DHT22;1688;51.000;13.684;2022-11-25T05:07:22;7.50;99.90
3350;DHT22;1688;51.000;13.684;2022-11-25T05:09:55;7.50;99.90
3350;DHT22;1688;51.000;13.684;2022-11-25T05:12:28;7.50;99.90
3350;DHT22;1688;51.000;13.684;2022-11-25T05:15:01;7.50;99.90
3350;DHT22;1688;51.000;13.684;2022-11-25T05:17:33;7.50;99.90
3350;DHT22;1688;51.000;13.684;2022-11-25T05:20:06;7.50;99.90
3350;DHT22;1688;51.000;13.684;2022-11-25T05:22:38;7.50;99.90
3350;DHT22;1688;51.000;13.684;2022-11-25T05:25:09;7.60;99.90
3350;DHT22;1688;51.000;13.684;2022-11-25T05:27:42;7.60;99.90
3350;DHT22;1688;51.000;13.684;2022-11-25T05:30:13;7.60;99.90
3350;DHT22;1688;51.000;13.684;2022-11-25T05:32:45;7.60;99.90
3350;DHT22;1688;51.000;13.684;2022-11-25T05:35:17;7.60;99.90
3350;DHT22;1688;51.000;13.684;2022-11-25T05:37:50;7.60;99.90
3350;DHT22;1688;51.000;13.684;2022-11-25T05:40:21;7.60;99.90
3350;DHT22;1688;51.000;13.684;2022-11-25T05:42:53;7.60;99.90
3350;DHT22;1688;51.000;13.684;2022-11-25T05:45:25;7.50;99.90
3350;DHT22;1688;51.000;13.684;2022-11-25T05:47:56;7.50;99.90
3350;DHT22;1688;51.000;13.684;2022-11-25T05:50:28;7.40;99.90
3350;DHT22;1688;51.000;13.684;2022-11-25T05:52:59;7.40;99.90
3350;DHT22;1688;51.000;13.684;2022-11-25T05:55:31;7.40;99.90
3350;DHT22;1688;51.000;13.684;2022-11-25T05:58:03;7.40;99.90
3350;DHT22;1688;51.000;13.684;2022-11-25T06:00:36;7.40;99.90
3350;DHT22;1688;51.000;13.684;2022-11-25T06:03:08;7.40;99.90
3350;DHT22;1688;51.000;13.684;2022-11-25T06:05:39;7.30;99.90
3350;DHT22;1688;51.000;13.684;2022-11-25T06:08:11;7.20;99.90
3350;DHT22;1688;51.000;13.684;2022-11-25T06:10:43;7.20;99.90
3350;DHT22;1688;51.000;13.684;2022-11-25T06:13:14;7.10;99.90
3350;DHT22;1688;51.000;13.684;2022-11-25T06:15:47;7.10;99.90
3350;DHT22;1688;51.000;13.684;2022-11-25T06:18:18;7.10;99.90
3350;DHT22;1688;51.000;13.684;2022-11-25T06:20:59;7.00;99.90
3350;DHT22;1688;51.000;13.684;2022-11-25T06:23:31;7.00;99.90
3350;DHT22;1688;51.000;13.684;2022-11-25T06:28:35;7.00;99.90
3350;DHT22;1688;51.000;13.684;2022-11-25T06:31:09;6.90;99.90
3350;DHT22;1688;51.000;13.684;2022-11-25T06:33:42;6.90;99.90
3350;DHT22;1688;51.000;13.684;2022-11-25T06:36:17;6.90;99.90
3350;DHT22;1688;51.000;13.684;2022-11-25T06:38:51;7.00;99.90
3350;DHT22;1688;51.000;13.684;2022-11-25T06:41:22;7.00;99.90
3350;DHT22;1688;51.000;13.684;2022-11-25T06:43:54;7.00;99.90
3350;DHT22;1688;51.000;13.684;2022-11-25T06:46:26;7.00;99.90
3350;DHT22;1688;51.000;13.684;2022-11-25T06:48:59;6.90;99.90
3350;DHT22;1688;51.000;13.684;2022-11-25T06:51:30;6.90;99.90
3350;DHT22;1688;51.000;13.684;2022-11-25T06:54:02;6.90;99.90
3350;DHT22;1688;51.000;13.684;2022-11-25T06:56:34;6.80;99.90
3350;DHT22;1688;51.000;13.684;2022-11-25T06:59:06;6.80;99.90
3350;DHT22;1688;51.000;13.684;2022-11-25T07:01:37;6.80;99.90
3350;DHT22;1688;51.000;13.684;2022-11-25T07:04:09;6.80;99.90
3350;DHT22;1688;51.000;13.684;2022-11-25T07:06:41;6.80;99.90
3350;DHT22;1688;51.000;13.684;2022-11-25T07:09:12;6.80;99.90
3350;DHT22;1688;51.000;13.684;2022-11-25T07:11:44;6.80;99.90
3350;DHT22;1688;51.000;13.684;2022-11-25T07:14:16;6.90;99.90
3350;DHT22;1688;51.000;13.684;2022-11-25T07:16:48;6.90;99.90
3350;DHT22;1688;51.000;13.684;2022-11-25T07:19:19;6.90;99.90
3350;DHT22;1688;51.000;13.684;2022-11-25T07:21:51;6.90;99.90
3350;DHT22;1688;51.000;13.684;2022-11-25T07:24:23;6.80;99.90
3350;DHT22;1688;51.000;13.684;2022-11-25T07:26:55;6.80;99.90
3350;DHT22;1688;51.000;13.684;2022-11-25T07:29:26;6.80;99.90
3350;DHT22;1688;51.000;13.684;2022-11-25T07:32:00;6.80;99.90
3350;DHT22;1688;51.000;13.684;2022-11-25T07:34:32;6.70;99.90
3350;DHT22;1688;51.000;13.684;2022-11-25T07:37:03;6.80;99.90
3350;DHT22;1688;51.000;13.684;2022-11-25T07:39:35;6.80;99.90
3350;DHT22;1688;51.000;13.684;2022-11-25T07:42:07;6.90;99.90
3350;DHT22;1688;51.000;13.684;2022-11-25T07:44:38;6.90;99.90
3350;DHT22;1688;51.000;13.684;2022-11-25T07:47:10;7.00;99.90
3350;DHT22;1688;51.000;13.684;2022-11-25T07:49:41;7.10;99.90
3350;DHT22;1688;51.000;13.684;2022-11-25T07:52:13;7.20;99.90
3350;DHT22;1688;51.000;13.684;2022-11-25T07:54:45;7.20;99.90
3350;DHT22;1688;51.000;13.684;2022-11-25T07:57:16;7.30;99.90
3350;DHT22;1688;51.000;13.684;2022-11-25T07:59:48;7.40;99.90
3350;DHT22;1688;51.000;13.684;2022-11-25T08:02:20;7.50;99.90
3350;DHT22;1688;51.000;13.684;2022-11-25T08:04:51;7.70;99.90
3350;DHT22;1688;51.000;13.684;2022-11-25T08:07:23;7.80;99.90
3350;DHT22;1688;51.000;13.684;2022-11-25T08:09:54;7.80;99.90
3350;DHT22;1688;51.000;13.684;2022-11-25T08:12:26;7.90;99.90
3350;DHT22;1688;51.000;13.684;2022-11-25T08:14:58;8.00;99.90
3350;DHT22;1688;51.000;13.684;2022-11-25T08:17:29;8.00;99.90
3350;DHT22;1688;51.000;13.684;2022-11-25T08:20:01;8.10;99.90
3350;DHT22;1688;51.000;13.684;2022-11-25T08:22:32;8.30;99.90
3350;DHT22;1688;51.000;13.684;2022-11-25T08:25:04;8.40;99.90
3350;DHT22;1688;51.000;13.684;2022-11-25T08:27:36;8.50;99.90
3350;DHT22;1688;51.000;13.684;2022-11-25T08:30:08;8.70;99.90
3350;DHT22;1688;51.000;13.684;2022-11-25T08:32:40;8.90;99.90
3350;DHT22;1688;51.000;13.684;2022-11-25T08:35:11;9.00;99.90
3350;DHT22;1688;51.000;13.684;2022-11-25T08:37:43;9.20;99.90
3350;DHT22;1688;51.000;13.684;2022-11-25T08:40:15;9.30;99.90
3350;DHT22;1688;51.000;13.684;2022-11-25T08:42:46;9.20;99.90
3350;DHT22;1688;51.000;13.684;2022-11-25T08:45:18;9.30;99.90
3350;DHT22;1688;51.000;13.684;2022-11-25T08:47:50;9.40;99.90
3350;DHT22;1688;51.000;13.684;2022-11-25T08:50:21;9.70;99.90
3350;DHT22;1688;51.000;13.684;2022-11-25T08:52:55;10.20;99.90
3350;DHT22;1688;51.000;13.684;2022-11-25T08:55:28;10.40;99.90
3350;DHT22;1688;51.000;13.684;2022-11-25T08:57:59;10.60;99.90
3350;DHT22;1688;51.000;13.684;2022-11-25T09:00:31;10.80;99.90
3350;DHT22;1688;51.000;13.684;2022-11-25T09:03:03;10.90;99.90
3350;DHT22;1688;51.000;13.684;2022-11-25T09:05:38;11.00;99.90
3350;DHT22;1688;51.000;13.684;2022-11-25T09:08:10;11.10;99.90
3350;DHT22;1688;51.000;13.684;2022-11-25T09:10:42;11.00;99.90
3350;DHT22;1688;51.000;13.684;2022-11-25T09:13:14;11.00;99.90
3350;DHT22;1688;51.000;13.684;2022-11-25T09:15:46;10.90;99.90
3350;DHT22;1688;51.000;13.684;2022-11-25T09:18:18;10.60;99.90
3350;DHT22;1688;51.000;13.684;2022-11-25T09:20:51;10.50;99.90
3350;DHT22;1688;51.000;13.684;2022-11-25T09:23:24;10.30;99.90
3350;DHT22;1688;51.000;13.684;2022-11-25T09:25:57;10.30;99.90
3350;DHT22;1688;51.000;13.684;2022-11-25T09:28:29;10.30;99.90
3350;DHT22;1688;51.000;13.684;2022-11-25T09:31:07;10.30;99.90
3350;DHT22;1688;51.000;13.684;2022-11-25T09:33:39;10.40;99.90
3350;DHT22;1688;51.000;13.684;2022-11-25T09:36:12;10.40;99.90
3350;DHT22;1688;51.000;13.684;2022-11-25T09:38:45;10.50;99.90
3350;DHT22;1688;51.000;13.684;2022-11-25T09:47:46;11.00;99.90
3350;DHT22;1688;51.000;13.684;2022-11-25T09:55:49;11.30;99.90
3350;DHT22;1688;51.000;13.684;2022-11-25T09:58:28;11.40;99.90
3350;DHT22;1688;51.000;13.684;2022-11-25T10:01:04;11.40;99.90
3350;DHT22;1688;51.000;13.684;2022-11-25T10:03:42;11.50;99.90
3350;DHT22;1688;51.000;13.684;2022-11-25T10:06:18;11.70;99.90
3350;DHT22;1688;51.000;13.684;2022-11-25T10:08:58;11.70;99.90
3350;DHT22;1688;51.000;13.684;2022-11-25T10:11:50;12.10;99.90
3350;DHT22;1688;51.000;13.684;2022-11-25T10:22:34;12.10;99.90
3350;DHT22;1688;51.000;13.684;2022-11-25T10:28:16;12.20;99.90
3350;DHT22;1688;51.000;13.684;2022-11-25T10:31:13;12.30;99.90
3350;DHT22;1688;51.000;13.684;2022-11-25T10:33:55;12.50;99.90
3350;DHT22;1688;51.000;13.684;2022-11-25T10:36:35;12.80;99.90
3350;DHT22;1688;51.000;13.684;2022-11-25T10:42:02;13.20;99.90
3350;DHT22;1688;51.000;13.684;2022-11-25T10:44:37;13.20;99.90
3350;DHT22;1688;51.000;13.684;2022-11-25T10:53:02;13.30;99.90
3350;DHT22;1688;51.000;13.684;2022-11-25T10:56:01;13.30;99.90
3350;DHT22;1688;51.000;13.684;2022-11-25T10:58:36;13.30;99.90
3350;DHT22;1688;51.000;13.684;2022-11-25T11:01:24;13.30;99.90
3350;DHT22;1688;51.000;13.684;2022-11-25T11:04:05;13.30;99.90
3350;DHT22;1688;51.000;13.684;2022-11-25T11:06:43;13.30;99.90
3350;DHT22;1688;51.000;13.684;2022-11-25T11:09:37;13.20;99.90
3350;DHT22;1688;51.000;13.684;2022-11-25T11:12:30;13.20;99.90
3350;DHT22;1688;51.000;13.684;2022-11-25T11:15:18;13.20;99.90
3350;DHT22;1688;51.000;13.684;2022-11-25T11:17:52;13.30;99.90
3350;DHT22;1688;51.000;13.684;2022-11-25T11:20:29;13.30;99.90
3350;DHT22;1688;51.000;13.684;2022-11-25T11:23:07;13.30;99.90
3350;DHT22;1688;51.000;13.684;2022-11-25T11:25:43;13.30;99.90
3350;DHT22;1688;51.000;13.684;2022-11-25T11:31:01;13.50;99.90
3350;DHT22;1688;51.000;13.684;2022-11-25T11:33:36;13.50;99.90
3350;DHT22;1688;51.000;13.684;2022-11-25T11:36:46;13.40;99.90
3350;DHT22;1688;51.000;13.684;2022-11-25T11:39:42;13.40;99.90
3350;DHT22;1688;51.000;13.684;2022-11-25T11:54:15;13.40;99.90
3350;DHT22;1688;51.000;13.684;2022-11-25T11:56:55;13.40;99.90
3350;DHT22;1688;51.000;13.684;2022-11-25T12:03:15;13.10;99.90
3350;DHT22;1688;51.000;13.684;2022-11-25T12:05:50;13.00;99.90
3350;DHT22;1688;51.000;13.684;2022-11-25T12:11:21;12.80;99.90
3350;DHT22;1688;51.000;13.684;2022-11-25T12:16:39;12.80;99.90
3350;DHT22;1688;51.000;13.684;2022-11-25T12:22:25;12.60;99.90
3350;DHT22;1688;51.000;13.684;2022-11-25T12:27:45;12.60;99.90
3350;DHT22;1688;51.000;13.684;2022-11-25T12:30:20;12.70;99.90
3350;DHT22;1688;51.000;13.684;2022-11-25T12:36:03;12.70;99.90
3350;DHT22;1688;51.000;13.684;2022-11-25T12:41:47;12.70;99.90
3350;DHT22;1688;51.000;13.684;2022-11-25T12:47:14;12.70;99.90
3350;DHT22;1688;51.000;13.684;2022-11-25T12:49:48;12.80;99.90
3350;DHT22;1688;51.000;13.684;2022-11-25T12:55:25;12.70;99.90
3350;DHT22;1688;51.000;13.684;2022-11-25T13:05:19;13.20;99.90
3350;DHT22;1688;51.000;13.684;2022-11-25T13:07:28;13.30;99.90
3350;DHT22;1688;51.000;13.684;2022-11-25T13:10:21;13.40;99.90
3350;DHT22;1688;51.000;13.684;2022-11-25T13:16:04;13.60;99.90
3350;DHT22;1688;51.000;13.684;2022-11-25T13:18:40;13.60;99.90
3350;DHT22;1688;51.000;13.684;2022-11-25T13:21:14;13.60;99.90
3350;DHT22;1688;51.000;13.684;2022-11-25T13:23:52;13.60;99.90
3350;DHT22;1688;51.000;13.684;2022-11-25T13:32:02;13.40;99.90
3350;DHT22;1688;51.000;13.684;2022-11-25T13:34:35;13.40;99.90
3350;DHT22;1688;51.000;13.684;2022-11-25T13:43:02;13.30;99.90
3350;DHT22;1688;51.000;13.684;2022-11-25T13:45:38;13.20;99.90
3350;DHT22;1688;51.000;13.684;2022-11-25T13:50:48;13.10;99.90
3350;DHT22;1688;51.000;13.684;2022-11-25T13:53:32;13.00;99.90
3350;DHT22;1688;51.000;13.684;2022-11-25T13:56:13;12.90;99.90
3350;DHT22;1688;51.000;13.684;2022-11-25T14:04:39;12.60;99.90
3350;DHT22;1688;51.000;13.684;2022-11-25T14:12:54;12.50;99.90
3350;DHT22;1688;51.000;13.684;2022-11-25T14:15:50;12.40;99.90
3350;DHT22;1688;51.000;13.684;2022-11-25T14:21:25;12.20;99.90
3350;DHT22;1688;51.000;13.684;2022-11-25T14:26:54;12.00;99.90
3350;DHT22;1688;51.000;13.684;2022-11-25T14:32:28;11.70;99.90
3350;DHT22;1688;51.000;13.684;2022-11-25T14:35:39;11.60;99.90
3350;DHT22;1688;51.000;13.684;2022-11-25T14:38:22;11.60;99.90
3350;DHT22;1688;51.000;13.684;2022-11-25T14:41:04;11.60;99.90
3350;DHT22;1688;51.000;13.684;2022-11-25T14:43:44;11.60;99.90
3350;DHT22;1688;51.000;13.684;2022-11-25T14:46:19;11.60;99.90
3350;DHT22;1688;51.000;13.684;2022-11-25T14:48:57;11.70;99.90
3350;DHT22;1688;51.000;13.684;2022-11-25T14:51:36;11.70;99.90
3350;DHT22;1688;51.000;13.684;2022-11-25T14:54:09;11.80;99.90
3350;DHT22;1688;51.000;13.684;2022-11-25T14:56:40;11.80;99.90
3350;DHT22;1688;51.000;13.684;2022-11-25T14:59:12;11.80;99.90
3350;DHT22;1688;51.000;13.684;2022-11-25T15:01:54;11.80;99.90
3350;DHT22;1688;51.000;13.684;2022-11-25T15:04:25;11.70;99.90
3350;DHT22;1688;51.000;13.684;2022-11-25T15:07:00;11.50;99.90
3350;DHT22;1688;51.000;13.684;2022-11-25T15:09:41;11.20;99.90
3350;DHT22;1688;51.000;13.684;2022-11-25T15:12:16;10.70;99.90
3350;DHT22;1688;51.000;13.684;2022-11-25T15:14:51;10.30;99.90
3350;DHT22;1688;51.000;13.684;2022-11-25T15:17:28;9.90;99.90
3350;DHT22;1688;51.000;13.684;2022-11-25T15:20:03;9.70;99.90
3350;DHT22;1688;51.000;13.684;2022-11-25T15:22:45;9.70;99.90
3350;DHT22;1688;51.000;13.684;2022-11-25T15:25:17;9.70;99.90
3350;DHT22;1688;51.000;13.684;2022-11-25T15:27:51;9.80;99.90
3350;DHT22;1688;51.000;13.684;2022-11-25T15:30:26;9.80;99.90
3350;DHT22;1688;51.000;13.684;2022-11-25T15:32:58;9.90;99.90
3350;DHT22;1688;51.000;13.684;2022-11-25T15:35:32;9.90;99.90
3350;DHT22;1688;51.000;13.684;2022-11-25T15:41:18;10.00;99.90
3350;DHT22;1688;51.000;13.684;2022-11-25T15:43:53;10.00;99.90
3350;DHT22;1688;51.000;13.684;2022-11-25T15:46:26;10.00;99.90
3350;DHT22;1688;51.000;13.684;2022-11-25T15:49:02;10.00;99.90
3350;DHT22;1688;51.000;13.684;2022-11-25T15:51:48;9.70;99.90
3350;DHT22;1688;51.000;13.684;2022-11-25T15:54:41;9.30;99.90
3350;DHT22;1688;51.000;13.684;2022-11-25T15:57:16;9.00;99.90
3350;DHT22;1688;51.000;13.684;2022-11-25T16:10:32;9.10;99.90
3350;DHT22;1688;51.000;13.684;2022-11-25T16:27:25;9.30;99.90
3350;DHT22;1688;51.000;13.684;2022-11-25T16:30:15;9.30;99.90
3350;DHT22;1688;51.000;13.684;2022-11-25T16:32:46;9.30;99.90
3350;DHT22;1688;51.000;13.684;2022-11-25T16:35:19;9.30;99.90
3350;DHT22;1688;51.000;13.684;2022-11-25T16:37:56;9.30;99.90
3350;DHT22;1688;51.000;13.684;2022-11-25T16:40:28;9.30;99.90
3350;DHT22;1688;51.000;13.684;2022-11-25T16:43:00;9.20;99.90
3350;DHT22;1688;51.000;13.684;2022-11-25T16:45:32;9.20;99.90
3350;DHT22;1688;51.000;13.684;2022-11-25T16:48:14;9.20;99.90
3350;DHT22;1688;51.000;13.684;2022-11-25T16:50:48;9.20;99.90
3350;DHT22;1688;51.000;13.684;2022-11-25T16:53:20;9.20;99.90
3350;DHT22;1688;51.000;13.684;2022-11-25T16:55:51;9.10;99.90
3350;DHT22;1688;51.000;13.684;2022-11-25T16:58:23;9.20;99.90
3350;DHT22;1688;51.000;13.684;2022-11-25T17:00:56;9.10;99.90
3350;DHT22;1688;51.000;13.684;2022-11-25T17:03:27;9.10;99.90
3350;DHT22;1688;51.000;13.684;2022-11-25T17:05:59;9.10;99.90
3350;DHT22;1688;51.000;13.684;2022-11-25T17:08:31;9.00;99.90
3350;DHT22;1688;51.000;13.684;2022-11-25T17:11:03;9.00;99.90
3350;DHT22;1688;51.000;13.684;2022-11-25T17:13:37;8.90;99.90
3350;DHT22;1688;51.000;13.684;2022-11-25T17:16:16;8.90;99.90
3350;DHT22;1688;51.000;13.684;2022-11-25T17:18:49;9.00;99.90
3350;DHT22;1688;51.000;13.684;2022-11-25T17:21:22;9.00;99.90
3350;DHT22;1688;51.000;13.684;2022-11-25T17:24:00;9.00;99.90
3350;DHT22;1688;51.000;13.684;2022-11-25T17:26:36;9.10;99.90
3350;DHT22;1688;51.000;13.684;2022-11-25T17:29:15;9.10;99.90
3350;DHT22;1688;51.000;13.684;2022-11-25T17:31:47;9.10;99.90
3350;DHT22;1688;51.000;13.684;2022-11-25T17:34:21;9.10;99.90
3350;DHT22;1688;51.000;13.684;2022-11-25T17:36:52;9.20;99.90
3350;DHT22;1688;51.000;13.684;2022-11-25T17:39:24;9.20;99.90
3350;DHT22;1688;51.000;13.684;2022-11-25T17:41:56;9.30;99.90
3350;DHT22;1688;51.000;13.684;2022-11-25T17:44:28;9.30;99.90
3350;DHT22;1688;51.000;13.684;2022-11-25T17:47:00;9.30;99.90
3350;DHT22;1688;51.000;13.684;2022-11-25T17:49:32;9.30;99.90
3350;DHT22;1688;51.000;13.684;2022-11-25T17:52:03;9.30;99.90
3350;DHT22;1688;51.000;13.684;2022-11-25T17:54:36;9.30;99.90
3350;DHT22;1688;51.000;13.684;2022-11-25T17:57:16;9.20;99.90
3350;DHT22;1688;51.000;13.684;2022-11-25T17:59:49;9.20;99.90
3350;DHT22;1688;51.000;13.684;2022-11-25T18:02:21;9.20;99.90
3350;DHT22;1688;51.000;13.684;2022-11-25T18:04:53;9.20;99.90
3350;DHT22;1688;51.000;13.684;2022-11-25T18:07:25;9.30;99.90
3350;DHT22;1688;51.000;13.684;2022-11-25T18:09:57;9.30;99.90
3350;DHT22;1688;51.000;13.684;2022-11-25T18:12:29;9.40;99.90
3350;DHT22;1688;51.000;13.684;2022-11-25T18:15:03;9.40;99.90
3350;DHT22;1688;51.000;13.684;2022-11-25T18:17:38;9.40;99.90
3350;DHT22;1688;51.000;13.684;2022-11-25T18:20:22;9.40;99.90
3350;DHT22;1688;51.000;13.684;2022-11-25T18:22:54;9.50;99.90
3350;DHT22;1688;51.000;13.684;2022-11-25T18:25:30;9.50;99.90
3350;DHT22;1688;51.000;13.684;2022-11-25T18:28:03;9.50;99.90
3350;DHT22;1688;51.000;13.684;2022-11-25T18:30:37;9.40;99.90
3350;DHT22;1688;51.000;13.684;2022-11-25T18:33:11;9.50;99.90
3350;DHT22;1688;51.000;13.684;2022-11-25T18:35:45;9.50;99.90
3350;DHT22;1688;51.000;13.684;2022-11-25T18:38:16;9.40;99.90
3350;DHT22;1688;51.000;13.684;2022-11-25T18:40:49;9.40;99.90
3350;DHT22;1688;51.000;13.684;2022-11-25T18:43:22;9.40;99.90
3350;DHT22;1688;51.000;13.684;2022-11-25T18:45:55;9.30;99.90
3350;DHT22;1688;51.000;13.684;2022-11-25T18:48:27;9.40;99.90
3350;DHT22;1688;51.000;13.684;2022-11-25T18:50:59;9.40;99.90
3350;DHT22;1688;51.000;13.684;2022-11-25T18:53:30;9.40;99.90
3350;DHT22;1688;51.000;13.684;2022-11-25T18:56:04;9.50;99.90
3350;DHT22;1688;51.000;13.684;2022-11-25T18:58:35;9.50;99.90
3350;DHT22;1688;51.000;13.684;2022-11-25T19:01:11;9.50;99.90
3350;DHT22;1688;51.000;13.684;2022-11-25T19:03:43;9.40;99.90
3350;DHT22;1688;51.000;13.684;2022-11-25T19:06:15;9.40;99.90
3350;DHT22;1688;51.000;13.684;2022-11-25T19:08:48;9.40;99.90
3350;DHT22;1688;51.000;13.684;2022-11-25T19:11:28;9.30;99.90